Time;durP1;ratioP1;P1;durP2;ratioP2;P2;SDS_P1;SDS_P2;PMS_P1;PMS_P2;Temp;Humidity;BMP_temperature;BMP_pressure;BME280_temperature;BME280_humidity;BME280_pressure;Samples;Min_cycle;Max_cycle;Signal;HPM_P1;HPM_P2
2021/01/22 00:00:29;;;;;;;;;;;5.50;99.90;;;;;;4947361;27;20142;-84
2021/01/22 00:02:53;;;;;;;;;;;5.60;99.90;;;;;;4949195;27;20416;-84
2021/01/22 00:05:16;;;;;;;;;;;5.70;99.90;;;;;;4947661;27;19919;-83
2021/01/22 00:07:38;;;;;;;;;;;5.70;99.90;;;;;;4949097;27;19920;-83
2021/01/22 00:10:01;;;;;;;;;;;5.70;99.90;;;;;;4949031;27;19991;-84
2021/01/22 00:12:24;;;;;;;;;;;5.70;99.90;;;;;;4952042;27;19928;-83
2021/01/22 00:14:47;;;;;;;;;;;5.70;99.90;;;;;;4950695;27;20297;-82
2021/01/22 00:17:09;;;;;;;;;;;5.70;99.90;;;;;;4944003;27;19927;-84
2021/01/22 00:19:33;;;;;;;;;;;5.80;99.90;;;;;;4950764;27;20289;-83
2021/01/22 00:21:56;;;;;;;;;;;5.80;99.90;;;;;;4952813;27;19927;-83
2021/01/22 00:24:18;;;;;;;;;;;5.80;99.90;;;;;;4952260;27;19965;-83
2021/01/22 00:26:41;;;;;;;;;;;5.90;99.90;;;;;;4952038;27;19919;-83
2021/01/22 00:29:03;;;;;;;;;;;6.00;99.90;;;;;;4952202;27;19928;-82
2021/01/22 00:31:26;;;;;;;;;;;5.90;99.90;;;;;;4953421;27;19920;-84
2021/01/22 00:33:48;;;;;;;;;;;6.00;99.90;;;;;;4952221;27;19926;-82
2021/01/22 00:36:12;;;;;;;;;;;5.90;99.90;;;;;;4952556;27;19928;-84
2021/01/22 00:38:35;;;;;;;;;;;5.90;99.90;;;;;;4952633;27;19931;-84
2021/01/22 00:40:57;;;;;;;;;;;6.00;99.90;;;;;;4951640;27;19930;-84
2021/01/22 00:43:20;;;;;;;;;;;5.90;99.90;;;;;;4952892;27;19920;-83
2021/01/22 00:45:42;;;;;;;;;;;5.90;99.90;;;;;;4942897;27;19927;-84
2021/01/22 00:48:06;;;;;;;;;;;6.00;99.90;;;;;;4951337;27;19919;-84
2021/01/22 00:50:28;;;;;;;;;;;6.00;99.90;;;;;;4951476;27;19927;-84
2021/01/22 00:52:52;;;;;;;;;;;6.10;99.90;;;;;;4952762;27;19984;-84
2021/01/22 00:55:15;;;;;;;;;;;6.00;99.90;;;;;;4951113;27;19928;-84
2021/01/22 00:57:38;;;;;;;;;;;6.00;99.90;;;;;;4949069;27;20403;-84
2021/01/22 01:00:01;;;;;;;;;;;6.10;99.90;;;;;;4952044;27;19955;-82
2021/01/22 01:02:24;;;;;;;;;;;6.00;99.90;;;;;;4950817;27;19919;-83
2021/01/22 01:04:47;;;;;;;;;;;6.00;99.90;;;;;;4951665;27;19920;-83
2021/01/22 01:07:10;;;;;;;;;;;6.10;99.90;;;;;;4951964;27;20002;-84
2021/01/22 01:09:34;;;;;;;;;;;6.10;99.90;;;;;;4944315;27;19951;-84
2021/01/22 01:11:56;;;;;;;;;;;6.10;99.90;;;;;;4972597;27;19919;-84
2021/01/22 01:14:19;;;;;;;;;;;6.10;99.90;;;;;;4952150;27;20402;-84
2021/01/22 01:16:41;;;;;;;;;;;6.10;99.90;;;;;;4950719;27;19919;-82
2021/01/22 01:19:04;;;;;;;;;;;6.10;99.90;;;;;;4952296;27;20430;-82
2021/01/22 01:21:27;;;;;;;;;;;6.10;99.90;;;;;;4951547;27;19920;-84
2021/01/22 01:23:50;;;;;;;;;;;6.20;99.90;;;;;;4949350;27;19928;-84
2021/01/22 01:26:13;;;;;;;;;;;6.10;99.90;;;;;;4952118;27;19994;-84
2021/01/22 01:28:36;;;;;;;;;;;6.20;99.90;;;;;;4951236;27;19920;-84
2021/01/22 01:30:58;;;;;;;;;;;8.80;99.90;;;;;;4950280;27;20293;-86
2021/01/22 01:33:21;;;;;;;;;;;6.30;99.90;;;;;;4951787;27;19923;-85
2021/01/22 01:35:44;;;;;;;;;;;6.40;99.90;;;;;;4952124;27;20301;-84
2021/01/22 01:38:06;;;;;;;;;;;6.40;99.90;;;;;;4947709;27;19920;-83
2021/01/22 01:40:31;;;;;;;;;;;6.40;99.90;;;;;;4950145;27;19966;-85
2021/01/22 01:42:55;;;;;;;;;;;6.40;99.90;;;;;;4950971;27;19972;-81
2021/01/22 01:45:18;;;;;;;;;;;6.50;99.90;;;;;;4951100;27;20437;-83
2021/01/22 01:47:40;;;;;;;;;;;6.50;99.90;;;;;;4950060;27;19951;-84
2021/01/22 01:50:03;;;;;;;;;;;6.50;99.90;;;;;;4950561;27;20386;-84
2021/01/22 01:52:26;;;;;;;;;;;6.60;99.90;;;;;;4951193;27;19965;-84
2021/01/22 01:54:49;;;;;;;;;;;6.70;99.90;;;;;;4950554;27;19934;-83
2021/01/22 01:57:12;;;;;;;;;;;6.70;99.90;;;;;;4950469;27;19924;-82
2021/01/22 01:59:36;;;;;;;;;;;6.70;99.90;;;;;;4949956;27;19920;-82
2021/01/22 02:02:01;;;;;;;;;;;6.70;99.90;;;;;;4948764;27;19928;-85
2021/01/22 02:04:24;;;;;;;;;;;6.80;99.90;;;;;;4949089;27;19928;-84
2021/01/22 02:06:47;;;;;;;;;;;6.80;99.90;;;;;;4950976;27;19932;-83
2021/01/22 02:09:09;;;;;;;;;;;7.00;99.90;;;;;;4950207;27;19927;-82
2021/01/22 02:11:33;;;;;;;;;;;7.00;99.90;;;;;;4949909;27;19920;-84
2021/01/22 02:13:56;;;;;;;;;;;7.00;99.90;;;;;;4950626;27;20296;-83
2021/01/22 02:16:19;;;;;;;;;;;7.00;99.90;;;;;;4940972;27;19931;-84
2021/01/22 02:18:44;;;;;;;;;;;7.10;99.90;;;;;;4950596;27;19934;-83
2021/01/22 02:21:11;;;;;;;;;;;7.00;99.90;;;;;;4950118;27;19920;-82
2021/01/22 02:23:34;;;;;;;;;;;7.10;99.90;;;;;;4950324;27;19920;-83
2021/01/22 02:26:14;;;;;;;;;;;7.20;99.90;;;;;;4944030;27;19923;-82
2021/01/22 02:28:38;;;;;;;;;;;7.30;99.90;;;;;;4950088;27;20006;-84
2021/01/22 02:31:01;;;;;;;;;;;7.40;99.90;;;;;;4949705;28;19964;-84
2021/01/22 02:33:24;;;;;;;;;;;8.70;99.90;;;;;;4948524;27;19920;-83
2021/01/22 02:35:51;;;;;;;;;;;7.30;99.90;;;;;;4950184;27;19920;-83
2021/01/22 02:38:15;;;;;;;;;;;7.40;99.90;;;;;;4950019;27;19934;-83
2021/01/22 02:40:38;;;;;;;;;;;7.40;99.90;;;;;;4949696;27;20038;-84
2021/01/22 02:43:01;;;;;;;;;;;7.40;99.90;;;;;;4944774;27;19971;-82
2021/01/22 02:45:25;;;;;;;;;;;7.40;99.90;;;;;;4950080;27;19923;-84
2021/01/22 02:47:48;;;;;;;;;;;7.40;99.90;;;;;;4947752;27;19927;-84
2021/01/22 02:50:11;;;;;;;;;;;7.30;99.90;;;;;;4948167;27;20256;-84
2021/01/22 02:52:36;;;;;;;;;;;7.40;99.90;;;;;;4941354;27;19924;-84
2021/01/22 02:54:59;;;;;;;;;;;7.40;99.90;;;;;;4949132;27;19972;-81
2021/01/22 02:57:27;;;;;;;;;;;7.40;99.90;;;;;;4949392;27;19923;-85
2021/01/22 02:59:58;;;;;;;;;;;7.40;99.90;;;;;;4949938;27;19927;-84
2021/01/22 03:02:26;;;;;;;;;;;7.30;99.90;;;;;;4947690;27;20374;-84
2021/01/22 03:04:49;;;;;;;;;;;7.20;99.90;;;;;;4949595;27;19959;-85
2021/01/22 03:07:15;;;;;;;;;;;7.40;99.90;;;;;;4947354;27;20290;-83
2021/01/22 03:09:39;;;;;;;;;;;7.40;99.90;;;;;;4948498;27;19971;-83
2021/01/22 03:12:03;;;;;;;;;;;7.30;99.90;;;;;;4949284;27;20294;-83
2021/01/22 03:14:26;;;;;;;;;;;7.40;99.90;;;;;;4948673;27;19920;-82
2021/01/22 03:16:50;;;;;;;;;;;7.40;99.90;;;;;;4948686;27;20486;-83
2021/01/22 03:19:13;;;;;;;;;;;7.40;99.90;;;;;;4948296;27;19928;-82
2021/01/22 03:21:36;;;;;;;;;;;7.50;99.90;;;;;;4949649;27;19920;-81
2021/01/22 03:24:00;;;;;;;;;;;7.70;99.90;;;;;;4948335;27;20445;-83
2021/01/22 03:26:23;;;;;;;;;;;7.70;99.90;;;;;;4949680;27;19972;-84
2021/01/22 03:28:46;;;;;;;;;;;7.80;99.90;;;;;;4949717;27;20266;-84
2021/01/22 03:31:08;;;;;;;;;;;7.70;99.90;;;;;;4947017;27;19926;-85
2021/01/22 03:33:31;;;;;;;;;;;7.80;99.90;;;;;;4949483;27;20010;-83
2021/01/22 03:35:55;;;;;;;;;;;7.90;99.90;;;;;;4940273;27;20011;-84
2021/01/22 03:38:17;;;;;;;;;;;8.00;99.90;;;;;;4948861;27;20278;-82
2021/01/22 03:40:40;;;;;;;;;;;8.00;99.90;;;;;;4948394;27;19927;-84
2021/01/22 03:43:03;;;;;;;;;;;8.10;99.90;;;;;;4949022;27;20282;-84
2021/01/22 03:45:25;;;;;;;;;;;8.00;99.90;;;;;;4957776;27;19927;-84
2021/01/22 03:47:48;;;;;;;;;;;8.20;99.90;;;;;;4951760;27;19962;-83
2021/01/22 03:50:11;;;;;;;;;;;8.10;99.90;;;;;;4948528;27;20289;-83
2021/01/22 03:52:35;;;;;;;;;;;8.10;99.90;;;;;;4948258;27;19920;-83
2021/01/22 03:54:57;;;;;;;;;;;8.10;99.90;;;;;;4948408;27;19928;-84
2021/01/22 03:57:20;;;;;;;;;;;8.10;99.90;;;;;;4941140;27;19927;-85
2021/01/22 03:59:43;;;;;;;;;;;8.10;99.90;;;;;;4949027;27;20409;-83
2021/01/22 04:02:05;;;;;;;;;;;8.00;99.90;;;;;;4949390;27;19974;-83
2021/01/22 04:04:28;;;;;;;;;;;8.00;99.90;;;;;;4947840;27;19927;-84
2021/01/22 04:06:50;;;;;;;;;;;8.10;99.90;;;;;;4949717;27;19934;-83
2021/01/22 04:09:14;;;;;;;;;;;8.00;99.90;;;;;;4948650;27;20320;-84
2021/01/22 04:11:37;;;;;;;;;;;8.10;99.90;;;;;;4949047;27;20397;-83
2021/01/22 04:13:59;;;;;;;;;;;8.20;99.90;;;;;;4949588;27;19920;-84
2021/01/22 04:16:22;;;;;;;;;;;8.10;99.90;;;;;;4949811;27;19973;-84
2021/01/22 04:18:44;;;;;;;;;;;8.10;99.90;;;;;;4947090;27;20283;-83
2021/01/22 04:21:07;;;;;;;;;;;8.10;99.90;;;;;;4948931;27;19920;-83
2021/01/22 04:23:30;;;;;;;;;;;8.20;99.90;;;;;;4948162;27;19920;-82
2021/01/22 04:25:53;;;;;;;;;;;8.10;99.90;;;;;;4947730;27;19998;-83
2021/01/22 04:28:17;;;;;;;;;;;8.10;99.90;;;;;;4950333;27;19928;-85
2021/01/22 04:30:40;;;;;;;;;;;8.10;99.90;;;;;;4947568;27;20278;-82
2021/01/22 04:33:02;;;;;;;;;;;8.10;99.90;;;;;;4947285;27;19934;-82
2021/01/22 04:35:25;;;;;;;;;;;8.10;99.90;;;;;;4948827;27;19934;-85
2021/01/22 04:37:47;;;;;;;;;;;8.10;99.90;;;;;;4946865;27;19919;-84
2021/01/22 04:40:11;;;;;;;;;;;8.10;99.90;;;;;;4931094;27;19965;-83
2021/01/22 04:42:35;;;;;;;;;;;8.10;99.90;;;;;;4947714;27;19927;-83
2021/01/22 04:44:59;;;;;;;;;;;8.00;99.90;;;;;;4948480;27;19927;-84
2021/01/22 04:47:22;;;;;;;;;;;8.00;99.90;;;;;;4938280;27;19919;-82
2021/01/22 04:49:46;;;;;;;;;;;8.00;99.90;;;;;;4947991;27;19927;-84
2021/01/22 04:52:10;;;;;;;;;;;8.10;99.90;;;;;;4948189;27;19932;-83
2021/01/22 04:54:36;;;;;;;;;;;8.10;99.90;;;;;;4948143;27;20303;-82
2021/01/22 04:56:59;;;;;;;;;;;8.20;99.90;;;;;;4950914;27;19920;-84
2021/01/22 04:59:28;;;;;;;;;;;8.10;99.90;;;;;;4952004;27;20286;-85
2021/01/22 05:01:51;;;;;;;;;;;8.00;99.90;;;;;;4951832;27;19926;-82
2021/01/22 05:04:14;;;;;;;;;;;8.10;99.90;;;;;;4950134;27;19927;-85
2021/01/22 05:06:37;;;;;;;;;;;8.10;99.90;;;;;;4951378;27;20394;-82
2021/01/22 05:09:00;;;;;;;;;;;8.10;99.90;;;;;;4950880;27;20338;-85
2021/01/22 05:11:23;;;;;;;;;;;8.00;99.90;;;;;;4952808;27;19928;-85
2021/01/22 05:13:46;;;;;;;;;;;8.20;99.90;;;;;;4964878;27;19927;-85
2021/01/22 05:16:12;;;;;;;;;;;8.20;99.90;;;;;;4951934;27;19949;-84
2021/01/22 05:18:35;;;;;;;;;;;8.20;99.90;;;;;;4948971;27;19934;-84
2021/01/22 05:21:05;;;;;;;;;;;8.20;99.90;;;;;;4951664;27;19920;-86
2021/01/22 05:23:32;;;;;;;;;;;8.20;99.90;;;;;;4951428;27;19945;-84
2021/01/22 05:25:58;;;;;;;;;;;8.10;99.90;;;;;;4950242;27;19935;-83
2021/01/22 05:28:30;;;;;;;;;;;8.10;99.90;;;;;;4941798;27;24395;-84
2021/01/22 05:30:56;;;;;;;;;;;8.20;99.90;;;;;;4949848;27;19920;-85
2021/01/22 05:33:19;;;;;;;;;;;8.30;99.90;;;;;;4950379;27;19949;-83
2021/01/22 05:35:42;;;;;;;;;;;8.50;99.90;;;;;;4951165;27;20411;-85
2021/01/22 05:38:05;;;;;;;;;;;8.60;99.90;;;;;;4951297;27;20002;-85
2021/01/22 05:40:27;;;;;;;;;;;8.50;99.90;;;;;;4949056;27;19920;-84
2021/01/22 05:42:51;;;;;;;;;;;8.70;99.90;;;;;;4949735;27;21807;-85
2021/01/22 05:45:14;;;;;;;;;;;8.60;99.90;;;;;;4950980;27;19927;-84
2021/01/22 05:47:37;;;;;;;;;;;8.60;99.90;;;;;;4951181;27;20301;-84
2021/01/22 05:50:02;;;;;;;;;;;8.60;99.90;;;;;;4941798;27;19924;-85
2021/01/22 05:52:25;;;;;;;;;;;8.70;99.90;;;;;;4949997;27;20298;-85
2021/01/22 05:54:48;;;;;;;;;;;8.60;99.90;;;;;;4952281;27;19942;-84
2021/01/22 05:57:11;;;;;;;;;;;8.70;99.90;;;;;;4950259;27;19927;-84
2021/01/22 05:59:34;;;;;;;;;;;8.70;99.90;;;;;;4950910;27;19951;-84
2021/01/22 06:01:58;;;;;;;;;;;8.60;99.90;;;;;;4951390;27;20030;-84
2021/01/22 06:04:20;;;;;;;;;;;8.70;99.90;;;;;;4949929;27;20014;-85
2021/01/22 06:06:44;;;;;;;;;;;8.70;99.90;;;;;;4951540;27;19920;-82
2021/01/22 06:09:07;;;;;;;;;;;8.70;99.90;;;;;;4948677;27;20302;-83
2021/01/22 06:11:30;;;;;;;;;;;8.70;99.90;;;;;;4945497;27;21192;-83
2021/01/22 06:13:54;;;;;;;;;;;8.70;99.90;;;;;;4973587;27;19927;-85
2021/01/22 06:16:18;;;;;;;;;;;8.70;99.90;;;;;;4940934;27;20263;-85
2021/01/22 06:18:44;;;;;;;;;;;8.70;99.90;;;;;;4949664;27;19931;-84
2021/01/22 06:21:10;;;;;;;;;;;8.70;99.90;;;;;;4948033;27;19928;-83
2021/01/22 06:23:34;;;;;;;;;;;8.70;99.90;;;;;;4947227;27;20326;-84
2021/01/22 06:25:58;;;;;;;;;;;5.80;99.90;;;;;;4947579;27;19927;-84
2021/01/22 06:28:21;;;;;;;;;;;8.80;99.90;;;;;;4950322;27;20274;-85
2021/01/22 06:30:44;;;;;;;;;;;9.00;99.90;;;;;;4947947;27;19927;-84
2021/01/22 06:33:07;;;;;;;;;;;9.00;99.90;;;;;;4951131;27;19970;-86
2021/01/22 06:35:31;;;;;;;;;;;9.00;99.90;;;;;;4941245;27;20302;-83
2021/01/22 06:37:55;;;;;;;;;;;9.10;99.90;;;;;;4950712;27;19920;-84
2021/01/22 06:40:20;;;;;;;;;;;9.10;99.90;;;;;;4950124;27;19927;-84
2021/01/22 06:42:43;;;;;;;;;;;9.30;99.90;;;;;;4952026;27;19928;-82
2021/01/22 06:45:06;;;;;;;;;;;9.20;99.90;;;;;;4963296;27;19964;-85
2021/01/22 06:47:29;;;;;;;;;;;9.30;99.90;;;;;;4953976;27;19927;-83
2021/01/22 06:49:52;;;;;;;;;;;9.30;99.90;;;;;;4950090;27;19924;-85
2021/01/22 06:52:16;;;;;;;;;;;9.40;99.90;;;;;;4948709;27;19926;-82
2021/01/22 06:54:57;;;;;;;;;;;9.40;99.90;;;;;;4949285;27;19942;-84
2021/01/22 06:57:21;;;;;;;;;;;9.50;99.90;;;;;;4947926;27;19925;-85
2021/01/22 06:59:43;;;;;;;;;;;9.40;99.90;;;;;;4940624;27;19927;-83
2021/01/22 07:02:24;;;;;;;;;;;9.30;99.90;;;;;;4950229;27;19951;-85
2021/01/22 07:04:47;;;;;;;;;;;9.30;99.90;;;;;;4948215;27;19919;-83
2021/01/22 07:07:10;;;;;;;;;;;6.20;99.90;;;;;;4950194;27;19919;-84
2021/01/22 07:09:47;;;;;;;;;;;9.40;99.90;;;;;;4950130;27;20006;-84
2021/01/22 07:12:10;;;;;;;;;;;12.00;99.90;;;;;;4946926;27;19959;-83
2021/01/22 07:14:35;;;;;;;;;;;9.30;99.90;;;;;;4949313;27;19924;-84
2021/01/22 07:16:57;;;;;;;;;;;9.30;99.90;;;;;;4949100;27;20073;-84
2021/01/22 07:19:21;;;;;;;;;;;9.30;99.90;;;;;;4947746;27;19920;-85
2021/01/22 07:21:44;;;;;;;;;;;9.40;99.90;;;;;;4948876;27;20014;-84
2021/01/22 07:24:12;;;;;;;;;;;9.40;99.90;;;;;;4948795;27;19920;-84
2021/01/22 07:26:36;;;;;;;;;;;9.50;99.90;;;;;;4948410;27;19919;-84
2021/01/22 07:28:59;;;;;;;;;;;8.70;99.90;;;;;;4947862;27;20021;-85
2021/01/22 07:31:40;;;;;;;;;;;9.60;99.90;;;;;;4949251;27;19920;-83
2021/01/22 07:34:04;;;;;;;;;;;9.50;99.90;;;;;;4946927;27;19923;-83
2021/01/22 07:36:27;;;;;;;;;;;9.70;99.90;;;;;;4949586;27;20275;-85
2021/01/22 07:38:51;;;;;;;;;;;9.70;99.90;;;;;;4940880;27;19965;-83
2021/01/22 07:41:13;;;;;;;;;;;9.60;99.90;;;;;;4949554;27;19928;-85
2021/01/22 07:43:36;;;;;;;;;;;9.70;99.90;;;;;;4950462;27;19942;-85
2021/01/22 07:46:06;;;;;;;;;;;9.70;99.90;;;;;;4949480;27;20434;-86
2021/01/22 07:48:28;;;;;;;;;;;9.70;99.90;;;;;;4929394;28;19927;-85
2021/01/22 07:50:53;;;;;;;;;;;9.60;99.90;;;;;;4948740;27;19963;-84
2021/01/22 07:53:17;;;;;;;;;;;9.50;99.90;;;;;;4946566;27;19928;-85
2021/01/22 07:55:42;;;;;;;;;;;9.40;99.90;;;;;;4950496;27;19972;-85
2021/01/22 07:58:07;;;;;;;;;;;9.50;99.90;;;;;;4946105;27;19924;-84
2021/01/22 08:00:36;;;;;;;;;;;9.40;99.90;;;;;;4947535;27;19928;-85
2021/01/22 08:02:59;;;;;;;;;;;9.30;99.90;;;;;;4948339;27;19951;-85
2021/01/22 08:05:29;;;;;;;;;;;9.40;99.90;;;;;;4948606;27;19976;-85
2021/01/22 08:07:52;;;;;;;;;;;9.40;99.90;;;;;;4946865;27;19927;-84
2021/01/22 08:10:15;;;;;;;;;;;9.40;99.90;;;;;;4947122;27;19934;-83
2021/01/22 08:12:39;;;;;;;;;;;9.40;99.90;;;;;;4939461;27;19920;-87
2021/01/22 08:15:15;;;;;;;;;;;9.50;99.90;;;;;;4940652;27;19973;-83
2021/01/22 08:17:38;;;;;;;;;;;9.40;99.90;;;;;;4947515;27;20435;-83
2021/01/22 08:20:06;;;;;;;;;;;9.40;99.90;;;;;;4947604;27;20006;-84
2021/01/22 08:22:29;;;;;;;;;;;9.20;99.90;;;;;;4948935;27;19926;-84
2021/01/22 08:24:54;;;;;;;;;;;8.70;99.90;;;;;;4949953;27;20026;-88
2021/01/22 08:27:20;;;;;;;;;;;8.20;99.90;;;;;;4947859;27;20014;-85
2021/01/22 08:29:47;;;;;;;;;;;7.80;99.90;;;;;;4947998;28;19942;-85
2021/01/22 08:32:11;;;;;;;;;;;7.60;99.90;;;;;;4951142;27;19972;-84
2021/01/22 08:34:35;;;;;;;;;;;7.50;99.90;;;;;;4952477;27;19919;-83
2021/01/22 08:36:58;;;;;;;;;;;7.40;99.90;;;;;;4951836;27;19920;-83
2021/01/22 08:39:20;;;;;;;;;;;7.20;99.90;;;;;;4953205;27;20414;-85
2021/01/22 08:41:44;;;;;;;;;;;7.00;99.90;;;;;;4951141;27;19959;-84
2021/01/22 08:44:07;;;;;;;;;;;6.80;99.90;;;;;;4952844;27;19927;-83
2021/01/22 08:46:30;;;;;;;;;;;6.90;99.90;;;;;;4952706;27;20003;-84
2021/01/22 08:48:53;;;;;;;;;;;6.90;99.90;;;;;;4950488;27;20427;-84
2021/01/22 08:51:26;;;;;;;;;;;6.80;99.90;;;;;;4951309;27;19919;-83
2021/01/22 08:53:49;;;;;;;;;;;6.70;99.90;;;;;;4951535;27;19984;-86
2021/01/22 08:56:12;;;;;;;;;;;6.70;99.90;;;;;;4951055;27;19978;-83
2021/01/22 08:58:36;;;;;;;;;;;6.50;99.90;;;;;;4951730;27;20301;-84
2021/01/22 14:33:13;;;;;;;;;;;5.90;99.90;;;;;;4950960;27;19919;-81
2021/01/22 14:35:36;;;;;;;;;;;5.90;99.90;;;;;;4951596;27;19962;-81
2021/01/22 14:37:58;;;;;;;;;;;5.80;99.90;;;;;;4949801;27;20049;-81
2021/01/22 14:40:21;;;;;;;;;;;5.70;99.90;;;;;;4949175;27;19989;-80
2021/01/22 14:42:43;;;;;;;;;;;5.70;99.90;;;;;;4950282;27;20711;-80
2021/01/22 14:45:07;;;;;;;;;;;5.70;99.90;;;;;;4941963;27;19919;-80
2021/01/22 14:47:30;;;;;;;;;;;5.50;99.90;;;;;;4946345;27;20018;-80
2021/01/22 14:49:54;;;;;;;;;;;5.50;99.90;;;;;;4946420;27;19934;-80
2021/01/22 14:52:16;;;;;;;;;;;5.40;99.90;;;;;;4948949;27;19955;-80
2021/01/22 14:54:40;;;;;;;;;;;5.30;99.90;;;;;;4946741;27;20129;-81
2021/01/22 14:57:02;;;;;;;;;;;5.90;99.90;;;;;;4948305;27;19972;-80
2021/01/22 14:59:25;;;;;;;;;;;5.10;99.90;;;;;;4947349;27;19927;-80
2021/01/22 15:01:48;;;;;;;;;;;5.10;99.90;;;;;;4947156;27;19928;-80
2021/01/22 15:04:10;;;;;;;;;;;5.20;99.90;;;;;;4949286;27;19934;-80
2021/01/22 15:06:34;;;;;;;;;;;5.00;99.90;;;;;;4949098;27;20371;-80
2021/01/22 15:08:57;;;;;;;;;;;5.00;99.90;;;;;;4948377;27;20320;-80
2021/01/22 15:11:20;;;;;;;;;;;4.90;99.90;;;;;;4948819;27;19965;-81
2021/01/22 15:13:43;;;;;;;;;;;5.00;99.90;;;;;;4949569;27;19928;-80
2021/01/22 15:16:06;;;;;;;;;;;5.00;99.90;;;;;;4950710;27;19942;-80
2021/01/22 15:18:28;;;;;;;;;;;4.90;99.90;;;;;;4949752;27;19927;-80
2021/01/22 15:20:51;;;;;;;;;;;4.80;99.90;;;;;;4949916;27;20014;-80
2021/01/22 15:23:15;;;;;;;;;;;4.80;99.90;;;;;;4950295;27;19942;-80
2021/01/22 15:25:38;;;;;;;;;;;4.80;99.90;;;;;;4948285;27;19920;-80
2021/01/22 15:28:02;;;;;;;;;;;4.70;99.90;;;;;;4950458;27;20015;-81
2021/01/22 15:30:25;;;;;;;;;;;4.60;99.90;;;;;;4949530;27;19934;-80
2021/01/22 15:32:49;;;;;;;;;;;4.90;99.90;;;;;;4949991;27;19935;-80
2021/01/22 15:35:12;;;;;;;;;;;4.60;99.90;;;;;;4947580;27;19969;-80
2021/01/22 15:37:35;;;;;;;;;;;4.70;99.90;;;;;;4948796;27;19927;-79
2021/01/22 15:39:59;;;;;;;;;;;4.60;99.90;;;;;;4949352;27;22461;-81
2021/01/22 15:42:21;;;;;;;;;;;4.50;99.90;;;;;;4949964;27;19926;-80
2021/01/22 15:44:44;;;;;;;;;;;4.50;99.90;;;;;;4948602;27;19998;-80
2021/01/22 15:47:14;;;;;;;;;;;4.50;99.90;;;;;;4950581;27;19976;-80
2021/01/22 15:49:36;;;;;;;;;;;4.50;99.90;;;;;;4947286;27;20606;-80
2021/01/22 15:52:01;;;;;;;;;;;4.40;99.90;;;;;;4949640;27;25774;-81
2021/01/22 15:54:23;;;;;;;;;;;4.40;99.90;;;;;;4949226;27;21385;-80
2021/01/22 15:56:47;;;;;;;;;;;4.40;99.90;;;;;;4950424;27;19964;-80
2021/01/22 15:59:10;;;;;;;;;;;4.40;99.90;;;;;;4948850;27;19932;-80
2021/01/22 16:01:34;;;;;;;;;;;4.20;99.90;;;;;;4949395;27;19974;-81
2021/01/22 16:03:57;;;;;;;;;;;4.40;99.90;;;;;;4949424;27;19939;-81
2021/01/22 16:06:20;;;;;;;;;;;4.50;99.90;;;;;;4947087;27;20030;-80
2021/01/22 16:08:43;;;;;;;;;;;4.40;99.90;;;;;;4948955;27;20039;-81
2021/01/22 16:11:06;;;;;;;;;;;4.60;99.90;;;;;;4948456;27;19970;-81
2021/01/22 16:13:30;;;;;;;;;;;4.70;99.90;;;;;;4949674;27;20313;-80
2021/01/22 16:15:53;;;;;;;;;;;4.70;99.90;;;;;;4946299;27;19931;-80
2021/01/22 16:18:15;;;;;;;;;;;4.70;99.90;;;;;;4949718;27;19955;-80
2021/01/22 16:20:38;;;;;;;;;;;4.70;99.90;;;;;;4946987;27;19924;-80
2021/01/22 16:23:01;;;;;;;;;;;4.80;99.90;;;;;;4949918;27;19931;-80
2021/01/22 16:25:23;;;;;;;;;;;4.80;99.90;;;;;;4948074;27;19967;-80
2021/01/22 16:27:46;;;;;;;;;;;4.80;99.90;;;;;;4949294;27;19960;-80
2021/01/22 16:30:11;;;;;;;;;;;4.80;99.90;;;;;;4948117;27;19931;-80
2021/01/22 16:32:33;;;;;;;;;;;4.90;99.90;;;;;;4948830;27;19962;-80
2021/01/22 16:34:56;;;;;;;;;;;5.00;99.90;;;;;;4947670;27;20019;-80
2021/01/22 16:37:20;;;;;;;;;;;4.90;99.90;;;;;;4949194;27;20413;-80
2021/01/22 16:39:42;;;;;;;;;;;5.00;99.90;;;;;;4950103;27;19974;-80
2021/01/22 16:42:06;;;;;;;;;;;5.10;99.90;;;;;;4948932;27;19957;-80
2021/01/22 16:44:29;;;;;;;;;;;4.90;99.90;;;;;;4948655;27;20399;-81
2021/01/22 16:46:54;;;;;;;;;;;5.00;99.90;;;;;;4947827;27;20349;-80
2021/01/22 16:49:20;;;;;;;;;;;5.00;99.90;;;;;;4938744;27;19927;-80
2021/01/22 16:51:44;;;;;;;;;;;4.90;99.90;;;;;;4948456;27;20456;-79
2021/01/22 16:54:08;;;;;;;;;;;4.80;99.90;;;;;;4953938;27;19924;-80
2021/01/22 16:56:30;;;;;;;;;;;4.70;99.90;;;;;;4951903;27;20018;-80
2021/01/22 16:58:55;;;;;;;;;;;4.60;99.90;;;;;;4953473;27;20441;-80
2021/01/22 17:01:18;;;;;;;;;;;5.60;99.90;;;;;;4952940;27;19931;-80
2021/01/22 17:03:41;;;;;;;;;;;4.60;99.90;;;;;;4953094;27;19923;-80
2021/01/22 17:06:04;;;;;;;;;;;4.70;99.90;;;;;;4953066;27;20389;-80
2021/01/22 17:08:27;;;;;;;;;;;4.70;99.90;;;;;;4952096;27;19934;-80
2021/01/22 17:10:49;;;;;;;;;;;4.60;99.90;;;;;;4951689;27;19923;-80
2021/01/22 17:13:12;;;;;;;;;;;4.60;99.90;;;;;;4952607;27;19959;-80
2021/01/22 17:15:35;;;;;;;;;;;4.60;99.90;;;;;;4952966;27;20152;-80
2021/01/22 17:17:57;;;;;;;;;;;4.60;99.90;;;;;;4953008;27;19934;-80
2021/01/22 17:20:22;;;;;;;;;;;4.70;99.90;;;;;;4951416;27;19970;-80
2021/01/22 17:22:44;;;;;;;;;;;4.70;99.90;;;;;;4952153;27;19928;-80
2021/01/22 17:25:09;;;;;;;;;;;4.80;99.90;;;;;;4952761;27;19932;-80
2021/01/22 17:27:31;;;;;;;;;;;4.70;99.90;;;;;;4953010;27;19955;-80
2021/01/22 17:29:55;;;;;;;;;;;4.70;99.90;;;;;;4951799;27;19976;-80
2021/01/22 17:32:18;;;;;;;;;;;4.70;99.90;;;;;;4952540;27;20347;-80
2021/01/22 17:34:40;;;;;;;;;;;4.60;99.90;;;;;;4952287;27;20274;-80
2021/01/22 17:37:04;;;;;;;;;;;4.60;99.90;;;;;;4949818;27;19931;-80
2021/01/22 17:39:27;;;;;;;;;;;4.60;99.90;;;;;;4951803;27;19930;-80
2021/01/22 17:41:50;;;;;;;;;;;4.50;99.90;;;;;;4951057;27;19934;-80
2021/01/22 17:44:13;;;;;;;;;;;4.40;99.90;;;;;;4948970;27;19928;-80
2021/01/22 17:46:36;;;;;;;;;;;4.40;99.90;;;;;;4951937;27;19923;-80
2021/01/22 17:48:59;;;;;;;;;;;4.30;99.90;;;;;;4952616;27;19998;-80
2021/01/22 17:51:22;;;;;;;;;;;4.10;99.90;;;;;;4951741;27;19924;-80
2021/01/22 17:53:46;;;;;;;;;;;4.00;99.90;;;;;;4950619;27;19928;-81
2021/01/22 17:56:09;;;;;;;;;;;3.80;99.90;;;;;;4950914;27;20015;-80
2021/01/22 17:58:32;;;;;;;;;;;3.90;99.90;;;;;;4952037;27;20015;-80
2021/01/22 18:00:55;;;;;;;;;;;3.90;99.90;;;;;;4949373;27;20394;-80
2021/01/22 18:03:18;;;;;;;;;;;3.80;99.90;;;;;;4949559;27;19964;-80
2021/01/22 18:05:40;;;;;;;;;;;3.80;99.90;;;;;;4951340;27;19974;-81
2021/01/22 18:08:04;;;;;;;;;;;3.80;99.90;;;;;;4951157;27;20005;-80
2021/01/22 18:10:27;;;;;;;;;;;3.80;99.90;;;;;;4950480;27;20010;-81
2021/01/22 18:12:50;;;;;;;;;;;3.70;99.90;;;;;;4951165;27;19928;-81
2021/01/22 18:15:13;;;;;;;;;;;3.60;99.90;;;;;;4952158;27;19932;-81
2021/01/22 18:17:36;;;;;;;;;;;3.60;99.90;;;;;;4950634;27;19982;-80
2021/01/22 18:20:00;;;;;;;;;;;3.40;99.90;;;;;;4950129;27;20281;-81
2021/01/22 18:22:22;;;;;;;;;;;3.40;99.90;;;;;;4950942;27;19930;-81
2021/01/22 18:24:45;;;;;;;;;;;3.40;99.90;;;;;;4940322;27;19985;-79
2021/01/22 18:27:09;;;;;;;;;;;3.30;99.90;;;;;;4941829;27;20318;-79
2021/01/22 18:29:32;;;;;;;;;;;3.30;99.90;;;;;;4949041;27;20015;-79
2021/01/22 18:31:55;;;;;;;;;;;3.30;99.90;;;;;;4948328;27;19963;-79
2021/01/22 18:34:19;;;;;;;;;;;3.30;99.90;;;;;;4949550;27;19976;-79
2021/01/22 18:36:47;;;;;;;;;;;;;;;;;;4949439;27;19963;-79
2021/01/22 18:39:12;;;;;;;;;;;3.50;99.90;;;;;;4950442;27;20158;-80
2021/01/22 18:41:35;;;;;;;;;;;3.30;99.90;;;;;;4951745;27;19930;-79
2021/01/22 18:43:58;;;;;;;;;;;3.30;99.90;;;;;;4950309;27;20298;-80
2021/01/22 18:46:21;;;;;;;;;;;3.10;99.90;;;;;;4949569;27;20010;-80
2021/01/22 18:48:44;;;;;;;;;;;3.10;99.90;;;;;;4950050;27;19935;-80
2021/01/22 18:51:07;;;;;;;;;;;;;;;;;;4949735;27;19990;-79
2021/01/22 18:53:30;;;;;;;;;;;3.00;99.90;;;;;;4951051;27;20401;-79
2021/01/22 18:55:53;;;;;;;;;;;;;;;;;;4950300;27;20492;-79
2021/01/22 18:58:16;;;;;;;;;;;;;;;;;;4949242;27;19939;-79
2021/01/22 19:23:21;;;;;;;;;;;3.00;99.90;;;;;;4946752;27;19950;-80
2021/01/22 21:02:00;;;;;;;;;;;2.70;99.90;;;;;;4953277;27;19916;-81
2021/01/22 21:04:23;;;;;;;;;;;2.60;99.90;;;;;;4948414;27;19959;-81
2021/01/22 21:06:45;;;;;;;;;;;;;;;;;;4949776;27;19931;-80
2021/01/22 21:10:34;;;;;;;7.15;3.17;;;;;;;;;;4906862;27;20659;-78
2021/01/22 21:12:57;;;;;;;9.00;3.33;;;2.10;99.90;;;;;;4891799;28;20140;-79
2021/01/22 21:15:20;;;;;;;8.00;3.35;;;2.00;99.90;;;;;;4897377;28;20098;-78
2021/01/22 21:17:43;;;;;;;7.15;3.75;;;2.00;99.90;;;;;;4897365;28;20091;-78
2021/01/22 21:20:08;;;;;;;8.98;4.22;;;2.00;99.90;;;;;;4898135;28;20122;-79
2021/01/22 21:22:31;;;;;;;10.52;3.95;;;1.90;99.90;;;;;;4898229;28;20095;-79
2021/01/22 21:24:56;;;;;;;11.30;4.75;;;1.80;99.90;;;;;;4896978;28;20099;-79
2021/01/22 21:27:21;;;;;;;9.80;4.40;;;1.70;99.90;;;;;;4898510;28;20102;-79
2021/01/22 21:29:44;;;;;;;12.48;5.05;;;1.70;99.90;;;;;;4899913;28;20102;-78
2021/01/22 21:32:07;;;;;;;10.82;4.75;;;1.60;99.90;;;;;;4898573;28;20088;-79
2021/01/22 21:34:30;;;;;;;18.48;5.13;;;1.60;99.90;;;;;;4890494;28;20080;-79
2021/01/22 21:36:53;;;;;;;13.50;5.10;;;1.50;99.90;;;;;;4899422;28;20108;-79
2021/01/22 21:39:16;;;;;;;14.98;6.20;;;1.40;99.90;;;;;;4899034;28;20544;-79